METAR Data
IDs: Format: Raw Decoded Include TAF

Data at: 1404 UTC 21 Apr 2021

METAR for:KSUX (Sioux City/Day Fld, IA, US)
Text:KSUX 211352Z 33012KT 10SM CLR M01/M05 A3030 RMK AO2 SLP272 T10061050
Temperature: -0.6°C ( 31°F)
Dewpoint: -5.0°C ( 23°F) [RH = 72%]
Pressure (altimeter):30.30 inches Hg (1026.2 mb) [Sea level pressure: 1027.2 mb]
Winds:from the NNW (330 degrees) at 14 MPH (12 knots; 6.2 m/s)
Visibility:10 or more sm (16+ km)
Ceiling:at least 12,000 feet AGL
Clouds:sky clear below 12,000 feet AGL